Aviation Digital Data Service (ADDS)

Output produced by METARs form (1823 UTC 19 August 2019)
found at http://www.aviationweather.gov/metar/data/
 
METAR text: LFPG 191800Z 26006KT CAVOK 21/07 Q1019 NOSIG
Conditions at: LFPG (CHARLES DE GAULL, FR) observed 1800 UTC 19 August 2019
Temperature: 21.0°C (70°F)
Dewpoint: 7.0°C (45°F) [RH = 40%]
Pressure (altimeter): 30.09 inches Hg (1019.0 mb)
Winds: from the W (260 degrees) at 7 MPH (6 knots; 3.1 m/s)
Visibility: 6 or more miles (10+ km)
Ceiling: ceiling and visibility are OK
Clouds: unknown
Weather: no significant weather observed at this time

METAR text: LFPG 191730Z 26006KT CAVOK 23/09 Q1019 NOSIG
Conditions at: LFPG (CHARLES DE GAULL, FR) observed 1730 UTC 19 August 2019
Temperature: 23.0°C (73°F)
Dewpoint: 9.0°C (48°F) [RH = 41%]
Pressure (altimeter): 30.09 inches Hg (1019.0 mb)
Winds: from the W (260 degrees) at 7 MPH (6 knots; 3.1 m/s)
Visibility: 6 or more miles (10+ km)
Ceiling: ceiling and visibility are OK
Clouds: unknown
Weather: no significant weather observed at this time

METAR text: LFPG 191700Z 24010KT 210V280 CAVOK 22/08 Q1019 NOSIG
Conditions at: LFPG (CHARLES DE GAULL, FR) observed 1700 UTC 19 August 2019
Temperature: 22.0°C (72°F)
Dewpoint: 8.0°C (46°F) [RH = 41%]
Pressure (altimeter): 30.09 inches Hg (1019.0 mb)
Winds: from the WSW (240 degrees) at 12 MPH (10 knots; 5.1 m/s)
Visibility: 6 or more miles (10+ km)
Ceiling: ceiling and visibility are OK
Clouds: unknown
Weather: no significant weather observed at this time

METAR text: LFPG 191630Z 23008KT CAVOK 22/08 Q1019 NOSIG
Conditions at: LFPG (CHARLES DE GAULL, FR) observed 1630 UTC 19 August 2019
Temperature: 22.0°C (72°F)
Dewpoint: 8.0°C (46°F) [RH = 41%]
Pressure (altimeter): 30.09 inches Hg (1019.0 mb)
Winds: from the SW (230 degrees) at 9 MPH (8 knots; 4.1 m/s)
Visibility: 6 or more miles (10+ km)
Ceiling: ceiling and visibility are OK
Clouds: unknown
Weather: no significant weather observed at this time

METAR text: LFPG 191600Z 24007KT 210V290 CAVOK 22/08 Q1019 NOSIG
Conditions at: LFPG (CHARLES DE GAULL, FR) observed 1600 UTC 19 August 2019
Temperature: 22.0°C (72°F)
Dewpoint: 8.0°C (46°F) [RH = 41%]
Pressure (altimeter): 30.09 inches Hg (1019.0 mb)
Winds: from the WSW (240 degrees) at 8 MPH (7 knots; 3.6 m/s)
Visibility: 6 or more miles (10+ km)
Ceiling: ceiling and visibility are OK
Clouds: unknown
Weather: no significant weather observed at this time

METAR text: LFPG 191530Z 25010KT CAVOK 22/07 Q1019 NOSIG
Conditions at: LFPG (CHARLES DE GAULL, FR) observed 1530 UTC 19 August 2019
Temperature: 22.0°C (72°F)
Dewpoint: 7.0°C (45°F) [RH = 38%]
Pressure (altimeter): 30.09 inches Hg (1019.0 mb)
Winds: from the WSW (250 degrees) at 12 MPH (10 knots; 5.1 m/s)
Visibility: 6 or more miles (10+ km)
Ceiling: ceiling and visibility are OK
Clouds: unknown
Weather: no significant weather observed at this time

METAR text: LFPG 191500Z 26010KT CAVOK 22/08 Q1019 NOSIG
Conditions at: LFPG (CHARLES DE GAULL, FR) observed 1500 UTC 19 August 2019
Temperature: 22.0°C (72°F)
Dewpoint: 8.0°C (46°F) [RH = 41%]
Pressure (altimeter): 30.09 inches Hg (1019.0 mb)
Winds: from the W (260 degrees) at 12 MPH (10 knots; 5.1 m/s)
Visibility: 6 or more miles (10+ km)
Ceiling: ceiling and visibility are OK
Clouds: unknown
Weather: no significant weather observed at this time

METAR text: LFPG 191430Z 24010KT 210V290 CAVOK 22/08 Q1019 NOSIG
Conditions at: LFPG (CHARLES DE GAULL, FR) observed 1430 UTC 19 August 2019
Temperature: 22.0°C (72°F)
Dewpoint: 8.0°C (46°F) [RH = 41%]
Pressure (altimeter): 30.09 inches Hg (1019.0 mb)
Winds: from the WSW (240 degrees) at 12 MPH (10 knots; 5.1 m/s)
Visibility: 6 or more miles (10+ km)
Ceiling: ceiling and visibility are OK
Clouds: unknown
Weather: no significant weather observed at this time

METAR text: LFPG 191400Z 24011KT 210V270 CAVOK 23/08 Q1019 NOSIG
Conditions at: LFPG (CHARLES DE GAULL, FR) observed 1400 UTC 19 August 2019
Temperature: 23.0°C (73°F)
Dewpoint: 8.0°C (46°F) [RH = 38%]
Pressure (altimeter): 30.09 inches Hg (1019.0 mb)
Winds: from the WSW (240 degrees) at 13 MPH (11 knots; 5.7 m/s)
Visibility: 6 or more miles (10+ km)
Ceiling: ceiling and visibility are OK
Clouds: unknown
Weather: no significant weather observed at this time

METAR text: LFPG 191330Z 24012KT CAVOK 22/08 Q1019 NOSIG
Conditions at: LFPG (CHARLES DE GAULL, FR) observed 1330 UTC 19 August 2019
Temperature: 22.0°C (72°F)
Dewpoint: 8.0°C (46°F) [RH = 41%]
Pressure (altimeter): 30.09 inches Hg (1019.0 mb)
Winds: from the WSW (240 degrees) at 14 MPH (12 knots; 6.2 m/s)
Visibility: 6 or more miles (10+ km)
Ceiling: ceiling and visibility are OK
Clouds: unknown
Weather: no significant weather observed at this time

METAR text: LFPG 191300Z 24012KT 210V270 CAVOK 22/08 Q1019 NOSIG
Conditions at: LFPG (CHARLES DE GAULL, FR) observed 1300 UTC 19 August 2019
Temperature: 22.0°C (72°F)
Dewpoint: 8.0°C (46°F) [RH = 41%]
Pressure (altimeter): 30.09 inches Hg (1019.0 mb)
Winds: from the WSW (240 degrees) at 14 MPH (12 knots; 6.2 m/s)
Visibility: 6 or more miles (10+ km)
Ceiling: ceiling and visibility are OK
Clouds: unknown
Weather: no significant weather observed at this time

METAR text: LFPG 191230Z 24011KT CAVOK 22/08 Q1019 NOSIG
Conditions at: LFPG (CHARLES DE GAULL, FR) observed 1230 UTC 19 August 2019
Temperature: 22.0°C (72°F)
Dewpoint: 8.0°C (46°F) [RH = 41%]
Pressure (altimeter): 30.09 inches Hg (1019.0 mb)
Winds: from the WSW (240 degrees) at 13 MPH (11 knots; 5.7 m/s)
Visibility: 6 or more miles (10+ km)
Ceiling: ceiling and visibility are OK
Clouds: unknown
Weather: no significant weather observed at this time

METAR text: LFPG 191200Z 24012G23KT 180V270 CAVOK 22/09 Q1019 NOSIG
Conditions at: LFPG (CHARLES DE GAULL, FR) observed 1200 UTC 19 August 2019
Temperature: 22.0°C (72°F)
Dewpoint: 9.0°C (48°F) [RH = 43%]
Pressure (altimeter): 30.09 inches Hg (1019.0 mb)
Winds: from the WSW (240 degrees) at 14 MPH (12 knots; 6.2 m/s)
gusting to 26 MPH (23 knots; 11.8 m/s)
Visibility: 6 or more miles (10+ km)
Ceiling: ceiling and visibility are OK
Clouds: unknown
Weather: no significant weather observed at this time

METAR text: LFPG 191130Z 25012KT 200V280 9999 FEW047 21/09 Q1019 NOSIG
Conditions at: LFPG (CHARLES DE GAULL, FR) observed 1130 UTC 19 August 2019
Temperature: 21.0°C (70°F)
Dewpoint: 9.0°C (48°F) [RH = 46%]
Pressure (altimeter): 30.09 inches Hg (1019.0 mb)
Winds: from the WSW (250 degrees) at 14 MPH (12 knots; 6.2 m/s)
Visibility: 6 or more miles (10+ km)
Ceiling: at least 12,000 feet AGL
Clouds: few clouds at 4700 feet AGL
Weather: no significant weather observed at this time

METAR text: LFPG 191100Z 21013KT 9999 FEW045 21/09 Q1019 NOSIG
Conditions at: LFPG (CHARLES DE GAULL, FR) observed 1100 UTC 19 August 2019
Temperature: 21.0°C (70°F)
Dewpoint: 9.0°C (48°F) [RH = 46%]
Pressure (altimeter): 30.09 inches Hg (1019.0 mb)
Winds: from the SSW (210 degrees) at 15 MPH (13 knots; 6.7 m/s)
Visibility: 6 or more miles (10+ km)
Ceiling: at least 12,000 feet AGL
Clouds: few clouds at 4500 feet AGL
Weather: no significant weather observed at this time

METAR text: LFPG 191030Z 24011KT 210V280 9999 FEW040 20/09 Q1019 NOSIG
Conditions at: LFPG (CHARLES DE GAULL, FR) observed 1030 UTC 19 August 2019
Temperature: 20.0°C (68°F)
Dewpoint: 9.0°C (48°F) [RH = 49%]
Pressure (altimeter): 30.09 inches Hg (1019.0 mb)
Winds: from the WSW (240 degrees) at 13 MPH (11 knots; 5.7 m/s)
Visibility: 6 or more miles (10+ km)
Ceiling: at least 12,000 feet AGL
Clouds: few clouds at 4000 feet AGL
Weather: no significant weather observed at this time

METAR text: LFPG 191000Z 24011KT 9999 SCT035 20/10 Q1019 NOSIG
Conditions at: LFPG (CHARLES DE GAULL, FR) observed 1000 UTC 19 August 2019
Temperature: 20.0°C (68°F)
Dewpoint: 10.0°C (50°F) [RH = 53%]
Pressure (altimeter): 30.09 inches Hg (1019.0 mb)
Winds: from the WSW (240 degrees) at 13 MPH (11 knots; 5.7 m/s)
Visibility: 6 or more miles (10+ km)
Ceiling: at least 12,000 feet AGL
Clouds: scattered clouds at 3500 feet AGL
Weather: no significant weather observed at this time

METAR text: LFPG 190930Z 24012KT 200V280 9999 SCT035 19/10 Q1018 NOSIG
Conditions at: LFPG (CHARLES DE GAULL, FR) observed 0930 UTC 19 August 2019
Temperature: 19.0°C (66°F)
Dewpoint: 10.0°C (50°F) [RH = 56%]
Pressure (altimeter): 30.06 inches Hg (1018.0 mb)
Winds: from the WSW (240 degrees) at 14 MPH (12 knots; 6.2 m/s)
Visibility: 6 or more miles (10+ km)
Ceiling: at least 12,000 feet AGL
Clouds: scattered clouds at 3500 feet AGL
Weather: no significant weather observed at this time

METAR text: LFPG 190900Z 23010KT 200V260 9999 FEW028 19/11 Q1018 NOSIG
Conditions at: LFPG (CHARLES DE GAULL, FR) observed 0900 UTC 19 August 2019
Temperature: 19.0°C (66°F)
Dewpoint: 11.0°C (52°F) [RH = 60%]
Pressure (altimeter): 30.06 inches Hg (1018.0 mb)
Winds: from the SW (230 degrees) at 12 MPH (10 knots; 5.1 m/s)
Visibility: 6 or more miles (10+ km)
Ceiling: at least 12,000 feet AGL
Clouds: few clouds at 2800 feet AGL
Weather: no significant weather observed at this time

METAR text: LFPG 190830Z 23009G19KT 180V300 9999 FEW025 18/11 Q1018 NOSIG
Conditions at: LFPG (CHARLES DE GAULL, FR) observed 0830 UTC 19 August 2019
Temperature: 18.0°C (64°F)
Dewpoint: 11.0°C (52°F) [RH = 64%]
Pressure (altimeter): 30.06 inches Hg (1018.0 mb)
Winds: from the SW (230 degrees) at 10 MPH (9 knots; 4.6 m/s)
gusting to 22 MPH (19 knots; 9.8 m/s)
Visibility: 6 or more miles (10+ km)
Ceiling: at least 12,000 feet AGL
Clouds: few clouds at 2500 feet AGL
Weather: no significant weather observed at this time

METAR text: LFPG 190800Z 23009KT 9999 FEW020 17/11 Q1018 NOSIG
Conditions at: LFPG (CHARLES DE GAULL, FR) observed 0800 UTC 19 August 2019
Temperature: 17.0°C (63°F)
Dewpoint: 11.0°C (52°F) [RH = 68%]
Pressure (altimeter): 30.06 inches Hg (1018.0 mb)
Winds: from the SW (230 degrees) at 10 MPH (9 knots; 4.6 m/s)
Visibility: 6 or more miles (10+ km)
Ceiling: at least 12,000 feet AGL
Clouds: few clouds at 2000 feet AGL
Weather: no significant weather observed at this time

METAR text: LFPG 190730Z 23009KT 190V270 9999 FEW020 17/12 Q1018 NOSIG
Conditions at: LFPG (CHARLES DE GAULL, FR) observed 0730 UTC 19 August 2019
Temperature: 17.0°C (63°F)
Dewpoint: 12.0°C (54°F) [RH = 72%]
Pressure (altimeter): 30.06 inches Hg (1018.0 mb)
Winds: from the SW (230 degrees) at 10 MPH (9 knots; 4.6 m/s)
Visibility: 6 or more miles (10+ km)
Ceiling: at least 12,000 feet AGL
Clouds: few clouds at 2000 feet AGL
Weather: no significant weather observed at this time

METAR text: LFPG 190700Z 22009KT CAVOK 16/11 Q1018 NOSIG
Conditions at: LFPG (CHARLES DE GAULL, FR) observed 0700 UTC 19 August 2019
Temperature: 16.0°C (61°F)
Dewpoint: 11.0°C (52°F) [RH = 72%]
Pressure (altimeter): 30.06 inches Hg (1018.0 mb)
Winds: from the SW (220 degrees) at 10 MPH (9 knots; 4.6 m/s)
Visibility: 6 or more miles (10+ km)
Ceiling: ceiling and visibility are OK
Clouds: unknown
Weather: no significant weather observed at this time

METAR text: LFPG 190630Z 23006KT 200V260 CAVOK 15/12 Q1017 NOSIG
Conditions at: LFPG (CHARLES DE GAULL, FR) observed 0630 UTC 19 August 2019
Temperature: 15.0°C (59°F)
Dewpoint: 12.0°C (54°F) [RH = 82%]
Pressure (altimeter): 30.03 inches Hg (1017.0 mb)
Winds: from the SW (230 degrees) at 7 MPH (6 knots; 3.1 m/s)
Visibility: 6 or more miles (10+ km)
Ceiling: ceiling and visibility are OK
Clouds: unknown
Weather: no significant weather observed at this time

METAR text: LFPG 190600Z 23006KT CAVOK 15/11 Q1017 NOSIG
Conditions at: LFPG (CHARLES DE GAULL, FR) observed 0600 UTC 19 August 2019
Temperature: 15.0°C (59°F)
Dewpoint: 11.0°C (52°F) [RH = 77%]
Pressure (altimeter): 30.03 inches Hg (1017.0 mb)
Winds: from the SW (230 degrees) at 7 MPH (6 knots; 3.1 m/s)
Visibility: 6 or more miles (10+ km)
Ceiling: ceiling and visibility are OK
Clouds: unknown
Weather: no significant weather observed at this time

METAR text: LFPG 190530Z 22006KT CAVOK 14/11 Q1017 NOSIG
Conditions at: LFPG (CHARLES DE GAULL, FR) observed 0530 UTC 19 August 2019
Temperature: 14.0°C (57°F)
Dewpoint: 11.0°C (52°F) [RH = 82%]
Pressure (altimeter): 30.03 inches Hg (1017.0 mb)
Winds: from the SW (220 degrees) at 7 MPH (6 knots; 3.1 m/s)
Visibility: 6 or more miles (10+ km)
Ceiling: ceiling and visibility are OK
Clouds: unknown
Weather: no significant weather observed at this time

METAR text: LFPG 190500Z 23007KT CAVOK 14/11 Q1017 NOSIG
Conditions at: LFPG (CHARLES DE GAULL, FR) observed 0500 UTC 19 August 2019
Temperature: 14.0°C (57°F)
Dewpoint: 11.0°C (52°F) [RH = 82%]
Pressure (altimeter): 30.03 inches Hg (1017.0 mb)
Winds: from the SW (230 degrees) at 8 MPH (7 knots; 3.6 m/s)
Visibility: 6 or more miles (10+ km)
Ceiling: ceiling and visibility are OK
Clouds: unknown
Weather: no significant weather observed at this time

METAR text: LFPG 190430Z 22006KT CAVOK 14/11 Q1017 NOSIG
Conditions at: LFPG (CHARLES DE GAULL, FR) observed 0430 UTC 19 August 2019
Temperature: 14.0°C (57°F)
Dewpoint: 11.0°C (52°F) [RH = 82%]
Pressure (altimeter): 30.03 inches Hg (1017.0 mb)
Winds: from the SW (220 degrees) at 7 MPH (6 knots; 3.1 m/s)
Visibility: 6 or more miles (10+ km)
Ceiling: ceiling and visibility are OK
Clouds: unknown
Weather: no significant weather observed at this time

METAR text: LFPG 190400Z 22005KT CAVOK 15/11 Q1016 NOSIG
Conditions at: LFPG (CHARLES DE GAULL, FR) observed 0400 UTC 19 August 2019
Temperature: 15.0°C (59°F)
Dewpoint: 11.0°C (52°F) [RH = 77%]
Pressure (altimeter): 30.00 inches Hg (1016.0 mb)
Winds: from the SW (220 degrees) at 6 MPH (5 knots; 2.6 m/s)
Visibility: 6 or more miles (10+ km)
Ceiling: ceiling and visibility are OK
Clouds: unknown
Weather: no significant weather observed at this time

METAR text: LFPG 190330Z 23004KT CAVOK 15/11 Q1016 NOSIG
Conditions at: LFPG (CHARLES DE GAULL, FR) observed 0330 UTC 19 August 2019
Temperature: 15.0°C (59°F)
Dewpoint: 11.0°C (52°F) [RH = 77%]
Pressure (altimeter): 30.00 inches Hg (1016.0 mb)
Winds: from the SW (230 degrees) at 5 MPH (4 knots; 2.1 m/s)
Visibility: 6 or more miles (10+ km)
Ceiling: ceiling and visibility are OK
Clouds: unknown
Weather: no significant weather observed at this time

METAR text: LFPG 190300Z 23004KT CAVOK 15/10 Q1016 NOSIG
Conditions at: LFPG (CHARLES DE GAULL, FR) observed 0300 UTC 19 August 2019
Temperature: 15.0°C (59°F)
Dewpoint: 10.0°C (50°F) [RH = 72%]
Pressure (altimeter): 30.00 inches Hg (1016.0 mb)
Winds: from the SW (230 degrees) at 5 MPH (4 knots; 2.1 m/s)
Visibility: 6 or more miles (10+ km)
Ceiling: ceiling and visibility are OK
Clouds: unknown
Weather: no significant weather observed at this time

METAR text: LFPG 190230Z 24005KT CAVOK 15/10 Q1016 NOSIG
Conditions at: LFPG (CHARLES DE GAULL, FR) observed 0230 UTC 19 August 2019
Temperature: 15.0°C (59°F)
Dewpoint: 10.0°C (50°F) [RH = 72%]
Pressure (altimeter): 30.00 inches Hg (1016.0 mb)
Winds: from the WSW (240 degrees) at 6 MPH (5 knots; 2.6 m/s)
Visibility: 6 or more miles (10+ km)
Ceiling: ceiling and visibility are OK
Clouds: unknown
Weather: no significant weather observed at this time

METAR text: LFPG 190200Z 23005KT CAVOK 16/10 Q1016 NOSIG
Conditions at: LFPG (CHARLES DE GAULL, FR) observed 0200 UTC 19 August 2019
Temperature: 16.0°C (61°F)
Dewpoint: 10.0°C (50°F) [RH = 68%]
Pressure (altimeter): 30.00 inches Hg (1016.0 mb)
Winds: from the SW (230 degrees) at 6 MPH (5 knots; 2.6 m/s)
Visibility: 6 or more miles (10+ km)
Ceiling: ceiling and visibility are OK
Clouds: unknown
Weather: no significant weather observed at this time

METAR text: LFPG 190130Z 24005KT CAVOK 16/10 Q1016 NOSIG
Conditions at: LFPG (CHARLES DE GAULL, FR) observed 0130 UTC 19 August 2019
Temperature: 16.0°C (61°F)
Dewpoint: 10.0°C (50°F) [RH = 68%]
Pressure (altimeter): 30.00 inches Hg (1016.0 mb)
Winds: from the WSW (240 degrees) at 6 MPH (5 knots; 2.6 m/s)
Visibility: 6 or more miles (10+ km)
Ceiling: ceiling and visibility are OK
Clouds: unknown
Weather: no significant weather observed at this time

METAR text: LFPG 190100Z 27003KT 9999 BKN049 BKN078 16/11 Q1015 NOSIG
Conditions at: LFPG (CHARLES DE GAULL, FR) observed 0100 UTC 19 August 2019
Temperature: 16.0°C (61°F)
Dewpoint: 11.0°C (52°F) [RH = 72%]
Pressure (altimeter): 29.97 inches Hg (1015.0 mb)
Winds: from the W (270 degrees) at 3 MPH (3 knots; 1.5 m/s)
Visibility: 6 or more miles (10+ km)
Ceiling: 4900 feet AGL
Clouds: broken clouds at 4900 feet AGL
broken clouds at 7800 feet AGL
Weather: no significant weather observed at this time

METAR text: LFPG 190030Z 23004KT 9999 BKN046 BKN078 16/11 Q1015 NOSIG
Conditions at: LFPG (CHARLES DE GAULL, FR) observed 0030 UTC 19 August 2019
Temperature: 16.0°C (61°F)
Dewpoint: 11.0°C (52°F) [RH = 72%]
Pressure (altimeter): 29.97 inches Hg (1015.0 mb)
Winds: from the SW (230 degrees) at 5 MPH (4 knots; 2.1 m/s)
Visibility: 6 or more miles (10+ km)
Ceiling: 4600 feet AGL
Clouds: broken clouds at 4600 feet AGL
broken clouds at 7800 feet AGL
Weather: no significant weather observed at this time

METAR text: LFPG 190000Z 23005KT CAVOK 15/11 Q1015 NOSIG
Conditions at: LFPG (CHARLES DE GAULL, FR) observed 0000 UTC 19 August 2019
Temperature: 15.0°C (59°F)
Dewpoint: 11.0°C (52°F) [RH = 77%]
Pressure (altimeter): 29.97 inches Hg (1015.0 mb)
Winds: from the SW (230 degrees) at 6 MPH (5 knots; 2.6 m/s)
Visibility: 6 or more miles (10+ km)
Ceiling: ceiling and visibility are OK
Clouds: unknown
Weather: no significant weather observed at this time

METAR text: LFPG 182330Z 22003KT CAVOK 15/11 Q1015 NOSIG
Conditions at: LFPG (CHARLES DE GAULL, FR) observed 2330 UTC 18 August 2019
Temperature: 15.0°C (59°F)
Dewpoint: 11.0°C (52°F) [RH = 77%]
Pressure (altimeter): 29.97 inches Hg (1015.0 mb)
Winds: from the SW (220 degrees) at 3 MPH (3 knots; 1.5 m/s)
Visibility: 6 or more miles (10+ km)
Ceiling: ceiling and visibility are OK
Clouds: unknown
Weather: no significant weather observed at this time

METAR text: LFPG 182300Z 19003KT CAVOK 15/11 Q1015 NOSIG
Conditions at: LFPG (CHARLES DE GAULL, FR) observed 2300 UTC 18 August 2019
Temperature: 15.0°C (59°F)
Dewpoint: 11.0°C (52°F) [RH = 77%]
Pressure (altimeter): 29.97 inches Hg (1015.0 mb)
Winds: from the S (190 degrees) at 3 MPH (3 knots; 1.5 m/s)
Visibility: 6 or more miles (10+ km)
Ceiling: ceiling and visibility are OK
Clouds: unknown
Weather: no significant weather observed at this time

METAR text: LFPG 182230Z 24003KT CAVOK 16/11 Q1014 NOSIG
Conditions at: LFPG (CHARLES DE GAULL, FR) observed 2230 UTC 18 August 2019
Temperature: 16.0°C (61°F)
Dewpoint: 11.0°C (52°F) [RH = 72%]
Pressure (altimeter): 29.94 inches Hg (1014.0 mb)
Winds: from the WSW (240 degrees) at 3 MPH (3 knots; 1.5 m/s)
Visibility: 6 or more miles (10+ km)
Ceiling: ceiling and visibility are OK
Clouds: unknown
Weather: no significant weather observed at this time

METAR text: LFPG 182200Z 29003KT CAVOK 17/11 Q1014 NOSIG
Conditions at: LFPG (CHARLES DE GAULL, FR) observed 2200 UTC 18 August 2019
Temperature: 17.0°C (63°F)
Dewpoint: 11.0°C (52°F) [RH = 68%]
Pressure (altimeter): 29.94 inches Hg (1014.0 mb)
Winds: from the WNW (290 degrees) at 3 MPH (3 knots; 1.5 m/s)
Visibility: 6 or more miles (10+ km)
Ceiling: ceiling and visibility are OK
Clouds: unknown
Weather: no significant weather observed at this time

METAR text: LFPG 182130Z 29004KT CAVOK 16/11 Q1013 NOSIG
Conditions at: LFPG (CHARLES DE GAULL, FR) observed 2130 UTC 18 August 2019
Temperature: 16.0°C (61°F)
Dewpoint: 11.0°C (52°F) [RH = 72%]
Pressure (altimeter): 29.91 inches Hg (1013.0 mb)
Winds: from the WNW (290 degrees) at 5 MPH (4 knots; 2.1 m/s)
Visibility: 6 or more miles (10+ km)
Ceiling: ceiling and visibility are OK
Clouds: unknown
Weather: no significant weather observed at this time

METAR text: LFPG 182100Z 30003KT CAVOK 17/11 Q1013 NOSIG
Conditions at: LFPG (CHARLES DE GAULL, FR) observed 2100 UTC 18 August 2019
Temperature: 17.0°C (63°F)
Dewpoint: 11.0°C (52°F) [RH = 68%]
Pressure (altimeter): 29.91 inches Hg (1013.0 mb)
Winds: from the WNW (300 degrees) at 3 MPH (3 knots; 1.5 m/s)
Visibility: 6 or more miles (10+ km)
Ceiling: ceiling and visibility are OK
Clouds: unknown
Weather: no significant weather observed at this time

METAR text: LFPG 182030Z 31006KT CAVOK 18/11 Q1012 NOSIG
Conditions at: LFPG (CHARLES DE GAULL, FR) observed 2030 UTC 18 August 2019
Temperature: 18.0°C (64°F)
Dewpoint: 11.0°C (52°F) [RH = 64%]
Pressure (altimeter): 29.88 inches Hg (1012.0 mb)
Winds: from the NW (310 degrees) at 7 MPH (6 knots; 3.1 m/s)
Visibility: 6 or more miles (10+ km)
Ceiling: ceiling and visibility are OK
Clouds: unknown
Weather: no significant weather observed at this time

METAR text: LFPG 182000Z 29006KT CAVOK 18/12 Q1012 NOSIG
Conditions at: LFPG (CHARLES DE GAULL, FR) observed 2000 UTC 18 August 2019
Temperature: 18.0°C (64°F)
Dewpoint: 12.0°C (54°F) [RH = 68%]
Pressure (altimeter): 29.88 inches Hg (1012.0 mb)
Winds: from the WNW (290 degrees) at 7 MPH (6 knots; 3.1 m/s)
Visibility: 6 or more miles (10+ km)
Ceiling: ceiling and visibility are OK
Clouds: unknown
Weather: no significant weather observed at this time

METAR text: LFPG 181930Z 28004KT CAVOK 19/13 Q1012 NOSIG
Conditions at: LFPG (CHARLES DE GAULL, FR) observed 1930 UTC 18 August 2019
Temperature: 19.0°C (66°F)
Dewpoint: 13.0°C (55°F) [RH = 68%]
Pressure (altimeter): 29.88 inches Hg (1012.0 mb)
Winds: from the W (280 degrees) at 5 MPH (4 knots; 2.1 m/s)
Visibility: 6 or more miles (10+ km)
Ceiling: ceiling and visibility are OK
Clouds: unknown
Weather: no significant weather observed at this time

METAR text: LFPG 181900Z 30004KT 9999 FEW040 SCT060 BKN260 20/13 Q1012 NOSIG
Conditions at: LFPG (CHARLES DE GAULL, FR) observed 1900 UTC 18 August 2019
Temperature: 20.0°C (68°F)
Dewpoint: 13.0°C (55°F) [RH = 64%]
Pressure (altimeter): 29.88 inches Hg (1012.0 mb)
Winds: from the WNW (300 degrees) at 5 MPH (4 knots; 2.1 m/s)
Visibility: 6 or more miles (10+ km)
Ceiling: 26000 feet AGL
Clouds: few clouds at 4000 feet AGL
scattered clouds at 6000 feet AGL
broken clouds at 26000 feet AGL
Weather: no significant weather observed at this time

METAR text: LFPG 181830Z 30004KT 9999 SCT036 SCT061 BKN260 20/14 Q1011 NOSIG
Conditions at: LFPG (CHARLES DE GAULL, FR) observed 1830 UTC 18 August 2019
Temperature: 20.0°C (68°F)
Dewpoint: 14.0°C (57°F) [RH = 68%]
Pressure (altimeter): 29.85 inches Hg (1011.0 mb)
Winds: from the WNW (300 degrees) at 5 MPH (4 knots; 2.1 m/s)
Visibility: 6 or more miles (10+ km)
Ceiling: 26000 feet AGL
Clouds: scattered clouds at 3600 feet AGL
scattered clouds at 6100 feet AGL
broken clouds at 26000 feet AGL
Weather: no significant weather observed at this time

METAR text: LFPG 181800Z 30006KT 9999 FEW033TCU SCT034 BKN260 20/14 Q1011 NOSIG
Conditions at: LFPG (CHARLES DE GAULL, FR) observed 1800 UTC 18 August 2019
Temperature: 20.0°C (68°F)
Dewpoint: 14.0°C (57°F) [RH = 68%]
Pressure (altimeter): 29.85 inches Hg (1011.0 mb)
Winds: from the WNW (300 degrees) at 7 MPH (6 knots; 3.1 m/s)
Visibility: 6 or more miles (10+ km)
Ceiling: 26000 feet AGL
Clouds: few clouds at 3300 feet AGL
scattered clouds at 3400 feet AGL
broken clouds at 26000 feet AGL
Weather: no significant weather observed at this time

METAR text: LFPG 181730Z 29004KT 260V320 9999 FEW033TCU SCT034 BKN260 21/14 Q1011 NOSIG
Conditions at: LFPG (CHARLES DE GAULL, FR) observed 1730 UTC 18 August 2019
Temperature: 21.0°C (70°F)
Dewpoint: 14.0°C (57°F) [RH = 64%]
Pressure (altimeter): 29.85 inches Hg (1011.0 mb)
Winds: from the WNW (290 degrees) at 5 MPH (4 knots; 2.1 m/s)
Visibility: 6 or more miles (10+ km)
Ceiling: 26000 feet AGL
Clouds: few clouds at 3300 feet AGL
scattered clouds at 3400 feet AGL
broken clouds at 26000 feet AGL
Weather: no significant weather observed at this time

METAR text: LFPG 181700Z 29006KT 9999 FEW034 SCT240 21/14 Q1011 NOSIG
Conditions at: LFPG (CHARLES DE GAULL, FR) observed 1700 UTC 18 August 2019
Temperature: 21.0°C (70°F)
Dewpoint: 14.0°C (57°F) [RH = 64%]
Pressure (altimeter): 29.85 inches Hg (1011.0 mb)
Winds: from the WNW (290 degrees) at 7 MPH (6 knots; 3.1 m/s)
Visibility: 6 or more miles (10+ km)
Ceiling: at least 12,000 feet AGL
Clouds: few clouds at 3400 feet AGL
scattered clouds at 24000 feet AGL
Weather: no significant weather observed at this time

METAR text: LFPG 181630Z 23010KT 9999 FEW034 SCT240 22/13 Q1011 NOSIG
Conditions at: LFPG (CHARLES DE GAULL, FR) observed 1630 UTC 18 August 2019
Temperature: 22.0°C (72°F)
Dewpoint: 13.0°C (55°F) [RH = 57%]
Pressure (altimeter): 29.85 inches Hg (1011.0 mb)
Winds: from the SW (230 degrees) at 12 MPH (10 knots; 5.1 m/s)
Visibility: 6 or more miles (10+ km)
Ceiling: at least 12,000 feet AGL
Clouds: few clouds at 3400 feet AGL
scattered clouds at 24000 feet AGL
Weather: no significant weather observed at this time

METAR text: LFPG 181600Z 22010KT 190V250 9999 FEW036 BKN240 22/13 Q1011 NOSIG
Conditions at: LFPG (CHARLES DE GAULL, FR) observed 1600 UTC 18 August 2019
Temperature: 22.0°C (72°F)
Dewpoint: 13.0°C (55°F) [RH = 57%]
Pressure (altimeter): 29.85 inches Hg (1011.0 mb)
Winds: from the SW (220 degrees) at 12 MPH (10 knots; 5.1 m/s)
Visibility: 6 or more miles (10+ km)
Ceiling: 24000 feet AGL
Clouds: few clouds at 3600 feet AGL
broken clouds at 24000 feet AGL
Weather: no significant weather observed at this time

METAR text: LFPG 181530Z 20011KT 9999 FEW033 BKN240 22/13 Q1011 NOSIG
Conditions at: LFPG (CHARLES DE GAULL, FR) observed 1530 UTC 18 August 2019
Temperature: 22.0°C (72°F)
Dewpoint: 13.0°C (55°F) [RH = 57%]
Pressure (altimeter): 29.85 inches Hg (1011.0 mb)
Winds: from the SSW (200 degrees) at 13 MPH (11 knots; 5.7 m/s)
Visibility: 6 or more miles (10+ km)
Ceiling: 24000 feet AGL
Clouds: few clouds at 3300 feet AGL
broken clouds at 24000 feet AGL
Weather: no significant weather observed at this time

METAR text: LFPG 181500Z 24009KT 210V270 9999 FEW028 BKN240 22/14 Q1011 NOSIG
Conditions at: LFPG (CHARLES DE GAULL, FR) observed 1500 UTC 18 August 2019
Temperature: 22.0°C (72°F)
Dewpoint: 14.0°C (57°F) [RH = 60%]
Pressure (altimeter): 29.85 inches Hg (1011.0 mb)
Winds: from the WSW (240 degrees) at 10 MPH (9 knots; 4.6 m/s)
Visibility: 6 or more miles (10+ km)
Ceiling: 24000 feet AGL
Clouds: few clouds at 2800 feet AGL
broken clouds at 24000 feet AGL
Weather: no significant weather observed at this time

METAR text: LFPG 181430Z 23009KT 200V260 9999 FEW025 BKN240 21/14 Q1011 NOSIG
Conditions at: LFPG (CHARLES DE GAULL, FR) observed 1430 UTC 18 August 2019
Temperature: 21.0°C (70°F)
Dewpoint: 14.0°C (57°F) [RH = 64%]
Pressure (altimeter): 29.85 inches Hg (1011.0 mb)
Winds: from the SW (230 degrees) at 10 MPH (9 knots; 4.6 m/s)
Visibility: 6 or more miles (10+ km)
Ceiling: 24000 feet AGL
Clouds: few clouds at 2500 feet AGL
broken clouds at 24000 feet AGL
Weather: no significant weather observed at this time

METAR text: LFPG 181400Z 23010KT 200V280 9999 SCT020 BKN240 20/14 Q1011 NOSIG
Conditions at: LFPG (CHARLES DE GAULL, FR) observed 1400 UTC 18 August 2019
Temperature: 20.0°C (68°F)
Dewpoint: 14.0°C (57°F) [RH = 68%]
Pressure (altimeter): 29.85 inches Hg (1011.0 mb)
Winds: from the SW (230 degrees) at 12 MPH (10 knots; 5.1 m/s)
Visibility: 6 or more miles (10+ km)
Ceiling: 24000 feet AGL
Clouds: scattered clouds at 2000 feet AGL
broken clouds at 24000 feet AGL
Weather: no significant weather observed at this time

METAR text: LFPG 181330Z 24010KT 190V250 9999 FEW020 BKN030 BKN260 19/15 Q1011 NOSIG
Conditions at: LFPG (CHARLES DE GAULL, FR) observed 1330 UTC 18 August 2019
Temperature: 19.0°C (66°F)
Dewpoint: 15.0°C (59°F) [RH = 78%]
Pressure (altimeter): 29.85 inches Hg (1011.0 mb)
Winds: from the WSW (240 degrees) at 12 MPH (10 knots; 5.1 m/s)
Visibility: 6 or more miles (10+ km)
Ceiling: 3000 feet AGL
Clouds: few clouds at 2000 feet AGL
broken clouds at 3000 feet AGL
broken clouds at 26000 feet AGL
Weather: no significant weather observed at this time

METAR text: LFPG 181300Z 24009KT 9999 SCT019 BKN030 19/15 Q1010 NOSIG
Conditions at: LFPG (CHARLES DE GAULL, FR) observed 1300 UTC 18 August 2019
Temperature: 19.0°C (66°F)
Dewpoint: 15.0°C (59°F) [RH = 78%]
Pressure (altimeter): 29.82 inches Hg (1010.0 mb)
Winds: from the WSW (240 degrees) at 10 MPH (9 knots; 4.6 m/s)
Visibility: 6 or more miles (10+ km)
Ceiling: 3000 feet AGL
Clouds: scattered clouds at 1900 feet AGL
broken clouds at 3000 feet AGL
Weather: no significant weather observed at this time

METAR text: LFPG 181230Z 26011KT 9999 SCT017 BKN027 19/15 Q1010 NOSIG
Conditions at: LFPG (CHARLES DE GAULL, FR) observed 1230 UTC 18 August 2019
Temperature: 19.0°C (66°F)
Dewpoint: 15.0°C (59°F) [RH = 78%]
Pressure (altimeter): 29.82 inches Hg (1010.0 mb)
Winds: from the W (260 degrees) at 13 MPH (11 knots; 5.7 m/s)
Visibility: 6 or more miles (10+ km)
Ceiling: 2700 feet AGL
Clouds: scattered clouds at 1700 feet AGL
broken clouds at 2700 feet AGL
Weather: no significant weather observed at this time

METAR text: LFPG 181200Z 27013KT 9999 BKN012 BKN026 19/16 Q1009 NOSIG
Conditions at: LFPG (CHARLES DE GAULL, FR) observed 1200 UTC 18 August 2019
Temperature: 19.0°C (66°F)
Dewpoint: 16.0°C (61°F) [RH = 83%]
Pressure (altimeter): 29.79 inches Hg (1009.0 mb)
Winds: from the W (270 degrees) at 15 MPH (13 knots; 6.7 m/s)
Visibility: 6 or more miles (10+ km)
Ceiling: 1200 feet AGL
Clouds: broken clouds at 1200 feet AGL
broken clouds at 2600 feet AGL
Weather: no significant weather observed at this time

METAR text: LFPG 181130Z 27012KT 9999 BKN012 BKN023 18/15 Q1009 NOSIG
Conditions at: LFPG (CHARLES DE GAULL, FR) observed 1130 UTC 18 August 2019
Temperature: 18.0°C (64°F)
Dewpoint: 15.0°C (59°F) [RH = 83%]
Pressure (altimeter): 29.79 inches Hg (1009.0 mb)
Winds: from the W (270 degrees) at 14 MPH (12 knots; 6.2 m/s)
Visibility: 6 or more miles (10+ km)
Ceiling: 1200 feet AGL
Clouds: broken clouds at 1200 feet AGL
broken clouds at 2300 feet AGL
Weather: no significant weather observed at this time

METAR text: LFPG 181100Z 28008KT 9999 SCT008 SCT016 18/16 Q1008 RERA NOSIG
Conditions at: LFPG (CHARLES DE GAULL, FR) observed 1100 UTC 18 August 2019
Temperature: 18.0°C (64°F)
Dewpoint: 16.0°C (61°F) [RH = 88%]
Pressure (altimeter): 29.76 inches Hg (1008.0 mb)
Winds: from the W (280 degrees) at 9 MPH (8 knots; 4.1 m/s)
Visibility: 6 or more miles (10+ km)
Ceiling: at least 12,000 feet AGL
Clouds: scattered clouds at 800 feet AGL
scattered clouds at 1600 feet AGL
Weather: no significant weather observed at this time

METAR text: LFPG 181030Z 27011KT 9999 -RA FEW007 FEW013TCU SCT026 BKN038 17/16 Q1008 NOSIG
Conditions at: LFPG (CHARLES DE GAULL, FR) observed 1030 UTC 18 August 2019
Temperature: 17.0°C (63°F)
Dewpoint: 16.0°C (61°F) [RH = 94%]
Pressure (altimeter): 29.76 inches Hg (1008.0 mb)
Winds: from the W (270 degrees) at 13 MPH (11 knots; 5.7 m/s)
Visibility: 6 or more miles (10+ km)
Ceiling: 3800 feet AGL
Clouds: few clouds at 700 feet AGL
few clouds at 1300 feet AGL
scattered clouds at 2600 feet AGL
broken clouds at 3800 feet AGL
Weather: -RA  (light rain)

METAR text: LFPG 181000Z 27009KT 9999 -RA SCT006 FEW013TCU SCT023 BKN080 17/16 Q1007 NOSIG
Conditions at: LFPG (CHARLES DE GAULL, FR) observed 1000 UTC 18 August 2019
Temperature: 17.0°C (63°F)
Dewpoint: 16.0°C (61°F) [RH = 94%]
Pressure (altimeter): 29.73 inches Hg (1007.0 mb)
Winds: from the W (270 degrees) at 10 MPH (9 knots; 4.6 m/s)
Visibility: 6 or more miles (10+ km)
Ceiling: 8000 feet AGL
Clouds: scattered clouds at 600 feet AGL
few clouds at 1300 feet AGL
scattered clouds at 2300 feet AGL
broken clouds at 8000 feet AGL
Weather: -RA  (light rain)

METAR text: LFPG 180930Z 25011KT 6000 RA FEW006 FEW012TCU SCT023 BKN066 18/17 Q1007 TEMPO 24015G25KT 4000 RA BKN005 SCT010TCU
Conditions at: LFPG (CHARLES DE GAULL, FR) observed 0930 UTC 18 August 2019
Temperature: 18.0°C (64°F)
Dewpoint: 17.0°C (63°F) [RH = 94%]
Pressure (altimeter): 29.73 inches Hg (1007.0 mb)
Winds: from the WSW (250 degrees) at 13 MPH (11 knots; 5.7 m/s)
Visibility: 4 miles ( 6 km)
Ceiling: 6600 feet AGL
Clouds: few clouds at 600 feet AGL
few clouds at 1200 feet AGL
scattered clouds at 2300 feet AGL
broken clouds at 6600 feet AGL
Weather: RA  (moderate rain)

METAR text: LFPG 180900Z 26013KT 190V290 4000 -RA SCT006 BKN015 19/16 Q1006 TEMPO 24015G25KT 4000 RA BKN005 SCT010TCU
Conditions at: LFPG (CHARLES DE GAULL, FR) observed 0900 UTC 18 August 2019
Temperature: 19.0°C (66°F)
Dewpoint: 16.0°C (61°F) [RH = 83%]
Pressure (altimeter): 29.70 inches Hg (1006.0 mb)
Winds: from the W (260 degrees) at 15 MPH (13 knots; 6.7 m/s)
Visibility: 2.49 miles (4.01 km)
Ceiling: 1500 feet AGL
Clouds: scattered clouds at 600 feet AGL
broken clouds at 1500 feet AGL
Weather: -RA  (light rain)

METAR text: LFPG 180830Z 20017KT 9999 -RA BKN014 20/18 Q1005 TEMPO 24015G25KT 4000 RA BKN005 SCT010TCU
Conditions at: LFPG (CHARLES DE GAULL, FR) observed 0830 UTC 18 August 2019
Temperature: 20.0°C (68°F)
Dewpoint: 18.0°C (64°F) [RH = 88%]
Pressure (altimeter): 29.68 inches Hg (1005.0 mb)
Winds: from the SSW (200 degrees) at 20 MPH (17 knots; 8.7 m/s)
Visibility: 6 or more miles (10+ km)
Ceiling: 1400 feet AGL
Clouds: broken clouds at 1400 feet AGL
Weather: -RA  (light rain)

METAR text: LFPG 180800Z 20017KT 9999 BKN013 20/18 Q1005 TEMPO 24015G25KT 4000 RA BKN005 SCT010TCU
Conditions at: LFPG (CHARLES DE GAULL, FR) observed 0800 UTC 18 August 2019
Temperature: 20.0°C (68°F)
Dewpoint: 18.0°C (64°F) [RH = 88%]
Pressure (altimeter): 29.68 inches Hg (1005.0 mb)
Winds: from the SSW (200 degrees) at 20 MPH (17 knots; 8.7 m/s)
Visibility: 6 or more miles (10+ km)
Ceiling: 1300 feet AGL
Clouds: broken clouds at 1300 feet AGL
Weather: no significant weather observed at this time

METAR text: LFPG 180730Z 19017KT 9999 -RA SCT012 BKN020 BKN100 20/18 Q1004 TEMPO 22015G25KT
Conditions at: LFPG (CHARLES DE GAULL, FR) observed 0730 UTC 18 August 2019
Temperature: 20.0°C (68°F)
Dewpoint: 18.0°C (64°F) [RH = 88%]
Pressure (altimeter): 29.65 inches Hg (1004.0 mb)
Winds: from the S (190 degrees) at 20 MPH (17 knots; 8.7 m/s)
Visibility: 6 or more miles (10+ km)
Ceiling: 2000 feet AGL
Clouds: scattered clouds at 1200 feet AGL
broken clouds at 2000 feet AGL
broken clouds at 10000 feet AGL
Weather: -RA  (light rain)

METAR text: LFPG 180700Z 19016KT 9999 -RA SCT013 SCT020 BKN040 20/18 Q1004 TEMPO 22015G25KT
Conditions at: LFPG (CHARLES DE GAULL, FR) observed 0700 UTC 18 August 2019
Temperature: 20.0°C (68°F)
Dewpoint: 18.0°C (64°F) [RH = 88%]
Pressure (altimeter): 29.65 inches Hg (1004.0 mb)
Winds: from the S (190 degrees) at 18 MPH (16 knots; 8.2 m/s)
Visibility: 6 or more miles (10+ km)
Ceiling: 4000 feet AGL
Clouds: scattered clouds at 1300 feet AGL
scattered clouds at 2000 feet AGL
broken clouds at 4000 feet AGL
Weather: -RA  (light rain)

METAR text: LFPG 180630Z 18015KT 9999 SCT009 SCT017 BKN040 20/18 Q1004 TEMPO 22015G25KT
Conditions at: LFPG (CHARLES DE GAULL, FR) observed 0630 UTC 18 August 2019
Temperature: 20.0°C (68°F)
Dewpoint: 18.0°C (64°F) [RH = 88%]
Pressure (altimeter): 29.65 inches Hg (1004.0 mb)
Winds: from the S (180 degrees) at 17 MPH (15 knots; 7.7 m/s)
Visibility: 6 or more miles (10+ km)
Ceiling: 4000 feet AGL
Clouds: scattered clouds at 900 feet AGL
scattered clouds at 1700 feet AGL
broken clouds at 4000 feet AGL
Weather: no significant weather observed at this time

Forecast for: LFPG (CHARLES DE GAULL, FR)
Text: TAF LFPG 191700Z 1918/2024 33008KT CAVOK TX22/2015Z TN11/2005Z
Forecast period: 1800 UTC 19 August 2019 to 0000 UTC 21 August 2019
Forecast type: FROM: standard forecast or significant change
Winds: from the NNW (330 degrees) at 9 MPH (8 knots; 4.1 m/s)
Visibility: 6 or more miles 10+ km)
Ceiling: unknown
Clouds: missing
Weather: no significant weather forecast for this period
Text: TEMPO 1922/2006 VRB03KT
Forecast period: 2200 UTC 19 August 2019 to 0600 UTC 20 August 2019
Forecast type: TEMPORARY: The following changes expected for less than half the time period
Winds: variable direction winds at 3 MPH (3 knots; 1.5 m/s)
Visibility: missing
Ceiling: unknown
Clouds: missing
Weather: no significant weather forecast for this period
Text: TEMPO 2008/2010 SCT020
Forecast period: 0800 to 1000 UTC 20 August 2019
Forecast type: TEMPORARY: The following changes expected for less than half the time period
Visibility: missing
Ceiling: at least 12,000 feet AGL
Clouds: scattered clouds at 2000 feet AGL
Weather: no significant weather forecast for this period